Time;durP1;ratioP1;P1;durP2;ratioP2;P2;SDS_P1;SDS_P2;PMS_P1;PMS_P2;Temp;Humidity;BMP_temperature;BMP_pressure;BME280_temperature;BME280_humidity;BME280_pressure;Samples;Min_cycle;Max_cycle;Signal;HPM_P1;HPM_P2
2021/01/01 00:01:04;;;;;;;;;;;11.10;82.70;;;;;;2084242;28;724;-51
2021/01/01 00:02:24;;;;;;;;;;;11.10;82.70;;;;;;2081282;28;1965;-51
2021/01/01 00:03:43;;;;;;;;;;;11.00;82.60;;;;;;2095003;28;771;-52
2021/01/01 00:05:03;;;;;;;;;;;11.10;82.70;;;;;;2092354;28;1332;-55
2021/01/01 00:06:22;;;;;;;;;;;11.10;82.80;;;;;;2081057;28;762;-52
2021/01/01 00:07:44;;;;;;;;;;;11.10;82.80;;;;;;2086441;28;762;-54
2021/01/01 00:09:04;;;;;;;;;;;11.00;83.30;;;;;;2090028;28;726;-56
2021/01/01 00:10:23;;;;;;;;;;;11.00;82.70;;;;;;2090125;28;927;-51
2021/01/01 00:11:42;;;;;;;;;;;11.00;82.70;;;;;;2089689;28;769;-53
2021/01/01 00:13:01;;;;;;;;;;;11.00;82.70;;;;;;2092033;28;980;-52
2021/01/01 00:14:21;;;;;;;;;;;11.00;82.70;;;;;;2081758;28;1223;-53
2021/01/01 00:15:40;;;;;;;;;;;11.00;82.70;;;;;;2069074;28;1336;-52
2021/01/01 00:17:00;;;;;;;;;;;11.00;82.70;;;;;;2081482;28;1619;-52
2021/01/01 00:18:19;;;;;;;;;;;11.00;82.70;;;;;;2081634;28;713;-52
2021/01/01 00:19:38;;;;;;;;;;;11.00;82.70;;;;;;2073007;28;724;-53
2021/01/01 00:20:58;;;;;;;;;;;11.00;82.60;;;;;;2086138;28;716;-54
2021/01/01 00:22:17;;;;;;;;;;;11.00;83.40;;;;;;2076085;28;1975;-55
2021/01/01 00:23:37;;;;;;;;;;;11.00;83.40;;;;;;2078322;28;729;-54
2021/01/01 00:24:56;;;;;;;;;;;11.00;82.70;;;;;;2080372;28;1349;-52
2021/01/01 00:26:16;;;;;;;;;;;11.00;82.80;;;;;;2089352;28;781;-52
2021/01/01 00:27:35;;;;;;;;;;;11.00;82.70;;;;;;2076130;28;757;-53
2021/01/01 00:28:54;;;;;;;;;;;11.00;82.80;;;;;;2069805;28;738;-51
2021/01/01 00:30:14;;;;;;;;;;;11.00;82.70;;;;;;2076554;28;776;-52
2021/01/01 00:31:33;;;;;;;;;;;11.00;82.80;;;;;;2077346;28;725;-55
2021/01/01 00:32:52;;;;;;;;;;;11.00;82.70;;;;;;2080095;28;722;-52
2021/01/01 00:34:11;;;;;;;;;;;11.00;82.80;;;;;;2076766;28;741;-55
2021/01/01 00:35:31;;;;;;;;;;;11.00;82.70;;;;;;2077509;28;1878;-52
2021/01/01 00:36:50;;;;;;;;;;;11.00;82.80;;;;;;2077526;28;716;-52
2021/01/01 00:38:09;;;;;;;;;;;11.00;83.50;;;;;;2076777;28;773;-52
2021/01/01 00:39:28;;;;;;;;;;;11.00;83.40;;;;;;2081641;28;721;-52
2021/01/01 00:40:47;;;;;;;;;;;11.00;82.90;;;;;;2081486;28;748;-52
2021/01/01 00:42:07;;;;;;;;;;;11.00;82.90;;;;;;2082214;28;1938;-52
2021/01/01 00:43:26;;;;;;;;;;;11.00;82.90;;;;;;2079561;28;869;-52
2021/01/01 00:44:45;;;;;;;;;;;11.00;83.70;;;;;;2091057;28;1884;-52
2021/01/01 00:46:05;;;;;;;;;;;11.00;82.80;;;;;;2087021;28;785;-53
2021/01/01 00:47:24;;;;;;;;;;;11.00;82.80;;;;;;2067334;28;758;-54
2021/01/01 00:48:43;;;;;;;;;;;10.90;82.80;;;;;;2073656;28;748;-52
2021/01/01 00:50:03;;;;;;;;;;;11.00;82.90;;;;;;2074266;28;746;-53
2021/01/01 00:51:28;;;;;;;;;;;10.90;82.80;;;;;;2083831;28;744;-52
2021/01/01 00:52:47;;;;;;;;;;;10.90;82.80;;;;;;2079908;28;745;-52
2021/01/01 00:54:07;;;;;;;;;;;10.90;82.70;;;;;;2085444;28;2568;-53
2021/01/01 00:55:26;;;;;;;;;;;10.90;82.80;;;;;;2089248;28;1752;-52
2021/01/01 00:56:45;;;;;;;;;;;10.90;82.80;;;;;;2089470;28;1090;-52
2021/01/01 00:58:04;;;;;;;;;;;10.90;82.90;;;;;;2089705;28;702;-51
2021/01/01 00:59:24;;;;;;;;;;;10.90;82.80;;;;;;2080736;28;995;-52
2021/01/01 01:00:43;;;;;;;;;;;10.90;82.80;;;;;;2086115;28;734;-51
2021/01/01 01:02:02;;;;;;;;;;;10.90;82.80;;;;;;2089797;28;1910;-54
2021/01/01 01:03:21;;;;;;;;;;;10.90;82.70;;;;;;2089695;28;1040;-50
2021/01/01 01:04:40;;;;;;;;;;;10.90;82.80;;;;;;2089602;28;775;-56
2021/01/01 01:05:59;;;;;;;;;;;10.90;82.70;;;;;;2089941;28;733;-53
2021/01/01 01:07:19;;;;;;;;;;;10.90;82.70;;;;;;2080945;28;763;-52
2021/01/01 01:08:38;;;;;;;;;;;10.90;82.80;;;;;;2077468;28;736;-53
2021/01/01 01:09:57;;;;;;;;;;;10.90;83.50;;;;;;2077714;28;721;-51
2021/01/01 01:11:26;;;;;;;;;;;10.90;82.80;;;;;;2086328;28;1018;-51
2021/01/01 01:12:45;;;;;;;;;;;10.90;82.90;;;;;;2075636;28;1084;-51
2021/01/01 01:14:05;;;;;;;;;;;10.90;82.80;;;;;;2093466;28;1062;-52
2021/01/01 01:15:24;;;;;;;;;;;10.90;83.40;;;;;;2091413;28;1397;-54
2021/01/01 01:16:43;;;;;;;;;;;10.90;83.40;;;;;;2094673;28;732;-52
2021/01/01 01:18:02;;;;;;;;;;;10.90;82.70;;;;;;2089076;28;762;-52
2021/01/01 01:19:21;;;;;;;;;;;10.90;82.70;;;;;;2085863;28;784;-53
2021/01/01 01:20:41;;;;;;;;;;;10.90;82.70;;;;;;2094391;28;741;-53
2021/01/01 01:22:00;;;;;;;;;;;10.90;82.80;;;;;;2097817;28;1902;-52
2021/01/01 01:23:19;;;;;;;;;;;10.90;82.90;;;;;;2105951;28;743;-53
2021/01/01 01:24:39;;;;;;;;;;;10.90;82.80;;;;;;2089437;28;1407;-52
2021/01/01 01:25:58;;;;;;;;;;;10.90;82.80;;;;;;2094313;28;732;-54
2021/01/01 01:27:17;;;;;;;;;;;10.90;82.80;;;;;;2097632;28;773;-52
2021/01/01 01:28:36;;;;;;;;;;;10.90;82.80;;;;;;2088991;28;789;-53
2021/01/01 01:29:56;;;;;;;;;;;10.90;82.80;;;;;;2091715;28;775;-52
2021/01/01 01:31:15;;;;;;;;;;;10.90;82.80;;;;;;2097071;28;983;-55
2021/01/01 01:32:34;;;;;;;;;;;10.90;82.80;;;;;;2088788;28;1343;-53
2021/01/01 01:33:53;;;;;;;;;;;10.90;82.80;;;;;;2090816;28;1686;-53
2021/01/01 01:35:12;;;;;;;;;;;10.90;82.80;;;;;;2090637;28;1427;-54
2021/01/01 01:36:32;;;;;;;;;;;10.90;82.90;;;;;;2093240;28;1013;-52
2021/01/01 01:37:51;;;;;;;;;;;10.90;82.80;;;;;;2091928;28;1326;-53
2021/01/01 01:39:10;;;;;;;;;;;10.90;82.80;;;;;;2093462;28;978;-54
2021/01/01 01:40:29;;;;;;;;;;;10.90;82.90;;;;;;2097302;28;732;-53
2021/01/01 01:41:49;;;;;;;;;;;10.80;82.80;;;;;;2088146;28;1973;-51
2021/01/01 01:43:08;;;;;;;;;;;10.80;82.70;;;;;;2088956;28;890;-54
2021/01/01 01:44:28;;;;;;;;;;;10.80;82.70;;;;;;2071218;28;823;-56
2021/01/01 01:45:47;;;;;;;;;;;10.80;82.70;;;;;;2099131;28;810;-54
2021/01/01 01:47:06;;;;;;;;;;;10.80;82.60;;;;;;2097186;28;759;-56
2021/01/01 01:48:27;;;;;;;;;;;10.80;82.60;;;;;;2085629;28;743;-54
2021/01/01 01:49:47;;;;;;;;;;;10.80;82.70;;;;;;2100434;28;844;-53
2021/01/01 01:51:06;;;;;;;;;;;10.80;83.50;;;;;;2092608;28;771;-54
2021/01/01 01:52:25;;;;;;;;;;;10.80;82.70;;;;;;2103990;28;741;-52
2021/01/01 01:53:45;;;;;;;;;;;10.80;82.70;;;;;;2093768;28;770;-52
2021/01/01 01:55:04;;;;;;;;;;;10.80;82.60;;;;;;2094793;28;1441;-52
2021/01/01 01:56:24;;;;;;;;;;;10.80;82.70;;;;;;2099487;28;736;-53
2021/01/01 01:57:43;;;;;;;;;;;10.80;82.70;;;;;;2099313;28;689;-54
2021/01/01 01:59:02;;;;;;;;;;;10.80;82.70;;;;;;2099325;28;1649;-53
2021/01/01 02:01:44;;;;;;;;;;;10.80;82.70;;;;;;2087036;28;812;-56
2021/01/01 02:03:03;;;;;;;;;;;10.80;82.70;;;;;;2093689;28;954;-51
2021/01/01 02:04:22;;;;;;;;;;;10.80;82.80;;;;;;2091012;28;722;-55
2021/01/01 02:05:41;;;;;;;;;;;10.80;83.30;;;;;;2081565;28;1396;-52
2021/01/01 02:07:00;;;;;;;;;;;10.80;82.60;;;;;;2087925;28;1550;-50
2021/01/01 02:08:20;;;;;;;;;;;10.80;82.60;;;;;;2082300;28;787;-53
2021/01/01 02:09:39;;;;;;;;;;;10.80;82.70;;;;;;2073982;28;772;-54
2021/01/01 02:10:58;;;;;;;;;;;10.80;82.60;;;;;;2070745;28;778;-53
2021/01/01 02:12:18;;;;;;;;;;;10.80;82.70;;;;;;2075372;28;954;-54
2021/01/01 02:13:37;;;;;;;;;;;10.80;82.70;;;;;;2085520;28;989;-54
2021/01/01 02:14:56;;;;;;;;;;;10.80;82.70;;;;;;2099136;28;1431;-51
2021/01/01 02:16:15;;;;;;;;;;;10.80;82.60;;;;;;2102417;28;712;-53
2021/01/01 02:17:34;;;;;;;;;;;10.80;82.70;;;;;;2099045;28;725;-53
2021/01/01 02:18:54;;;;;;;;;;;10.80;82.60;;;;;;2090334;28;746;-51
2021/01/01 02:20:13;;;;;;;;;;;10.80;82.70;;;;;;2087007;28;725;-54
2021/01/01 02:21:32;;;;;;;;;;;10.80;82.60;;;;;;2095806;28;794;-53
2021/01/01 02:22:51;;;;;;;;;;;10.80;82.60;;;;;;2095596;28;1279;-55
2021/01/01 02:24:10;;;;;;;;;;;10.80;82.60;;;;;;2090417;28;741;-54
2021/01/01 02:25:30;;;;;;;;;;;10.80;82.70;;;;;;2095052;28;1364;-52
2021/01/01 02:26:50;;;;;;;;;;;10.70;82.60;;;;;;2081611;28;769;-54
2021/01/01 02:28:09;;;;;;;;;;;10.80;82.70;;;;;;2100585;28;716;-53
2021/01/01 02:29:28;;;;;;;;;;;10.80;82.70;;;;;;2101982;28;730;-53
2021/01/01 02:30:47;;;;;;;;;;;10.70;82.50;;;;;;2098986;28;757;-53
2021/01/01 02:32:07;;;;;;;;;;;10.70;82.60;;;;;;2090238;28;769;-53
2021/01/01 02:33:26;;;;;;;;;;;10.70;82.60;;;;;;2095443;28;797;-52
2021/01/01 02:34:45;;;;;;;;;;;10.70;82.60;;;;;;2089302;28;1314;-56
2021/01/01 02:36:04;;;;;;;;;;;10.70;82.60;;;;;;2095693;28;754;-53
2021/01/01 02:37:23;;;;;;;;;;;10.70;82.50;;;;;;2089593;28;793;-55
2021/01/01 02:38:43;;;;;;;;;;;10.70;82.60;;;;;;2095537;28;720;-51
2021/01/01 02:40:03;;;;;;;;;;;10.70;83.20;;;;;;2098913;28;710;-55
2021/01/01 02:41:22;;;;;;;;;;;10.70;83.20;;;;;;2098933;28;897;-53
2021/01/01 02:42:41;;;;;;;;;;;10.70;82.60;;;;;;2095323;28;1934;-54
2021/01/01 02:44:00;;;;;;;;;;;10.70;82.60;;;;;;2094231;28;1023;-54
2021/01/01 02:45:19;;;;;;;;;;;10.70;82.60;;;;;;2105182;28;1361;-53
2021/01/01 02:46:39;;;;;;;;;;;10.70;82.40;;;;;;2093281;28;775;-53
2021/01/01 02:48:19;;;;;;;;;;;10.70;82.40;;;;;;2086760;28;764;-52
2021/01/01 02:49:38;;;;;;;;;;;10.70;82.60;;;;;;2098294;28;739;-55
2021/01/01 02:50:57;;;;;;;;;;;10.70;82.50;;;;;;2099006;28;744;-52
2021/01/01 02:52:16;;;;;;;;;;;10.70;82.60;;;;;;2098733;28;715;-52
2021/01/01 02:53:35;;;;;;;;;;;10.70;83.20;;;;;;2098757;28;740;-55
2021/01/01 02:54:54;;;;;;;;;;;10.70;82.50;;;;;;2098216;28;1372;-54
2021/01/01 02:56:15;;;;;;;;;;;10.70;82.50;;;;;;2098803;28;803;-53
2021/01/01 02:57:35;;;;;;;;;;;10.70;82.50;;;;;;2098358;28;726;-53
2021/01/01 02:58:54;;;;;;;;;;;10.70;82.50;;;;;;2098942;28;748;-52
2021/01/01 03:00:13;;;;;;;;;;;10.70;82.50;;;;;;2098853;28;760;-55
2021/01/01 03:01:33;;;;;;;;;;;10.70;82.50;;;;;;2098087;28;767;-52
2021/01/01 03:02:52;;;;;;;;;;;10.70;82.50;;;;;;2099104;28;711;-52
2021/01/01 03:04:11;;;;;;;;;;;10.70;82.60;;;;;;2093368;28;809;-52
2021/01/01 03:05:30;;;;;;;;;;;10.70;82.50;;;;;;2095812;28;1470;-54
2021/01/01 03:06:49;;;;;;;;;;;10.70;82.60;;;;;;2095579;28;710;-50
2021/01/01 03:08:09;;;;;;;;;;;10.70;83.20;;;;;;2098598;28;760;-54
2021/01/01 03:09:28;;;;;;;;;;;10.70;82.50;;;;;;2093921;28;863;-55
2021/01/01 03:10:47;;;;;;;;;;;10.70;83.20;;;;;;2087094;28;936;-54
2021/01/01 03:12:06;;;;;;;;;;;10.70;82.50;;;;;;2090059;28;928;-57
2021/01/01 03:13:26;;;;;;;;;;;10.70;82.50;;;;;;2077801;28;932;-54
2021/01/01 03:14:45;;;;;;;;;;;10.70;82.40;;;;;;2091009;28;1512;-52
2021/01/01 03:16:04;;;;;;;;;;;10.70;82.60;;;;;;2088616;28;706;-55
2021/01/01 03:17:23;;;;;;;;;;;10.70;82.50;;;;;;2084914;28;737;-54
2021/01/01 03:18:42;;;;;;;;;;;10.70;82.50;;;;;;2087560;28;1465;-54
2021/01/01 03:20:02;;;;;;;;;;;10.70;82.50;;;;;;2085776;28;834;-55
2021/01/01 03:21:21;;;;;;;;;;;10.70;82.50;;;;;;2081067;28;1942;-54
2021/01/01 03:22:40;;;;;;;;;;;10.70;82.50;;;;;;2084036;28;1906;-52
2021/01/01 03:24:00;;;;;;;;;;;10.70;82.40;;;;;;2090548;28;1716;-52
2021/01/01 03:25:19;;;;;;;;;;;10.70;82.50;;;;;;2072469;28;1613;-50
2021/01/01 03:26:39;;;;;;;;;;;10.60;82.30;;;;;;2077220;28;890;-53
2021/01/01 03:27:58;;;;;;;;;;;10.60;83.00;;;;;;2095634;28;796;-54
2021/01/01 03:29:17;;;;;;;;;;;10.70;82.50;;;;;;2098585;28;722;-55
2021/01/01 03:30:37;;;;;;;;;;;10.60;82.40;;;;;;2098686;28;707;-53
2021/01/01 03:31:56;;;;;;;;;;;10.60;82.30;;;;;;2089627;28;976;-53
2021/01/01 03:33:15;;;;;;;;;;;10.60;82.30;;;;;;2095017;28;787;-52
2021/01/01 03:34:35;;;;;;;;;;;10.60;82.30;;;;;;2098818;28;713;-55
2021/01/01 03:35:54;;;;;;;;;;;10.60;82.20;;;;;;2089702;28;802;-51
2021/01/01 03:37:13;;;;;;;;;;;10.60;82.40;;;;;;2094971;28;957;-54
2021/01/01 03:38:32;;;;;;;;;;;10.60;82.20;;;;;;2089861;28;713;-53
2021/01/01 03:39:54;;;;;;;;;;;10.60;82.30;;;;;;2095017;28;724;-55
2021/01/01 03:41:13;;;;;;;;;;;10.60;82.30;;;;;;2098645;28;784;-53
2021/01/01 03:42:32;;;;;;;;;;;10.60;83.10;;;;;;2094947;28;1965;-52
2021/01/01 03:43:51;;;;;;;;;;;10.60;83.00;;;;;;2094805;28;1097;-52
2021/01/01 03:45:11;;;;;;;;;;;10.60;82.30;;;;;;2095873;28;1508;-53
2021/01/01 03:46:30;;;;;;;;;;;10.60;82.30;;;;;;2089563;28;781;-52
2021/01/01 03:47:49;;;;;;;;;;;10.60;82.30;;;;;;2094816;28;732;-51
2021/01/01 03:49:08;;;;;;;;;;;10.60;82.30;;;;;;2098462;28;727;-51
2021/01/01 03:50:28;;;;;;;;;;;10.60;82.40;;;;;;2089492;28;772;-52
2021/01/01 03:51:47;;;;;;;;;;;10.60;82.30;;;;;;2094998;28;734;-54
2021/01/01 03:53:06;;;;;;;;;;;10.60;82.40;;;;;;2098807;28;753;-53
2021/01/01 03:54:25;;;;;;;;;;;10.60;82.30;;;;;;2106017;28;770;-54
2021/01/01 03:55:46;;;;;;;;;;;10.60;82.40;;;;;;2092699;28;1404;-54
2021/01/01 03:57:05;;;;;;;;;;;10.60;82.30;;;;;;2086373;28;720;-56
2021/01/01 03:58:24;;;;;;;;;;;10.60;82.20;;;;;;2086168;28;721;-53
2021/01/01 03:59:43;;;;;;;;;;;10.60;83.00;;;;;;2094547;28;719;-55
2021/01/01 04:01:02;;;;;;;;;;;10.60;82.90;;;;;;2098002;28;1032;-53
2021/01/01 04:02:21;;;;;;;;;;;10.60;83.00;;;;;;2097814;28;1898;-54
2021/01/01 04:03:41;;;;;;;;;;;10.60;82.20;;;;;;2089502;28;727;-51
2021/01/01 04:05:00;;;;;;;;;;;10.60;82.20;;;;;;2085509;28;1455;-51
2021/01/01 04:06:19;;;;;;;;;;;10.60;82.30;;;;;;2094341;28;742;-52
2021/01/01 04:07:38;;;;;;;;;;;10.60;82.20;;;;;;2098115;28;742;-54
2021/01/01 04:08:58;;;;;;;;;;;10.60;82.30;;;;;;2098311;28;698;-54
2021/01/01 04:10:17;;;;;;;;;;;10.60;82.30;;;;;;2098017;28;977;-54
2021/01/01 04:11:36;;;;;;;;;;;10.60;82.30;;;;;;2098037;28;693;-54
2021/01/01 04:12:55;;;;;;;;;;;10.60;82.30;;;;;;2085720;28;1041;-51
2021/01/01 04:14:15;;;;;;;;;;;10.60;82.30;;;;;;2087679;28;1133;-52
2021/01/01 04:15:34;;;;;;;;;;;10.60;82.20;;;;;;2084652;28;2011;-53
2021/01/01 04:16:53;;;;;;;;;;;10.60;82.20;;;;;;2081125;28;1270;-54
2021/01/01 04:18:12;;;;;;;;;;;10.60;82.30;;;;;;2081433;28;1010;-51
2021/01/01 04:19:31;;;;;;;;;;;10.60;83.10;;;;;;2089968;28;1007;-54
2021/01/01 04:20:51;;;;;;;;;;;10.60;82.20;;;;;;2081117;28;818;-52
2021/01/01 04:22:10;;;;;;;;;;;10.50;82.10;;;;;;2086310;28;1909;-56
2021/01/01 04:23:29;;;;;;;;;;;10.60;82.30;;;;;;2090016;28;712;-53
2021/01/01 04:24:48;;;;;;;;;;;10.60;82.30;;;;;;2089246;28;1312;-53
2021/01/01 04:26:08;;;;;;;;;;;10.60;82.30;;;;;;2090070;28;713;-52
2021/01/01 04:27:27;;;;;;;;;;;10.50;82.20;;;;;;2080684;28;711;-52
2021/01/01 04:28:47;;;;;;;;;;;10.50;82.10;;;;;;2086146;28;749;-50
2021/01/01 04:30:06;;;;;;;;;;;10.50;82.10;;;;;;2080897;28;738;-52
2021/01/01 04:31:25;;;;;;;;;;;10.50;82.10;;;;;;2086457;28;702;-54
2021/01/01 04:32:44;;;;;;;;;;;10.50;82.10;;;;;;2090034;28;704;-53
2021/01/01 04:34:04;;;;;;;;;;;10.50;82.20;;;;;;2080869;28;760;-55
2021/01/01 04:35:23;;;;;;;;;;;10.50;82.80;;;;;;2086023;28;1312;-52
2021/01/01 04:36:42;;;;;;;;;;;10.50;82.10;;;;;;2081010;28;730;-54
2021/01/01 04:38:01;;;;;;;;;;;10.50;82.80;;;;;;2086325;28;745;-51
2021/01/01 04:39:21;;;;;;;;;;;10.50;82.10;;;;;;2089650;28;720;-52
2021/01/01 04:40:40;;;;;;;;;;;10.50;82.00;;;;;;2090002;28;696;-51
2021/01/01 04:42:00;;;;;;;;;;;10.50;82.00;;;;;;2093703;28;1969;-53
2021/01/01 04:43:19;;;;;;;;;;;10.50;82.10;;;;;;2087205;28;1277;-54
2021/01/01 04:44:38;;;;;;;;;;;10.50;82.00;;;;;;2086291;28;1050;-50
2021/01/01 04:45:57;;;;;;;;;;;10.50;82.10;;;;;;2089330;28;744;-54
2021/01/01 04:47:17;;;;;;;;;;;10.50;82.10;;;;;;2094102;28;712;-53
2021/01/01 04:48:36;;;;;;;;;;;10.50;82.10;;;;;;2089424;28;761;-54
2021/01/01 04:49:55;;;;;;;;;;;10.50;82.10;;;;;;2088847;28;721;-51
2021/01/01 04:51:14;;;;;;;;;;;10.50;82.10;;;;;;2094393;28;712;-54
2021/01/01 04:52:34;;;;;;;;;;;10.50;82.00;;;;;;2089271;28;834;-54
2021/01/01 04:53:56;;;;;;;;;;;10.50;82.70;;;;;;2094390;28;733;-54
2021/01/01 04:55:15;;;;;;;;;;;10.50;82.20;;;;;;2097283;28;1451;-54
2021/01/01 04:56:43;;;;;;;;;;;10.40;82.00;;;;;;2088825;28;735;-52
2021/01/01 04:58:02;;;;;;;;;;;10.50;82.10;;;;;;2103172;28;742;-54
2021/01/01 04:59:21;;;;;;;;;;;10.50;82.10;;;;;;2101106;28;779;-52
2021/01/01 05:00:40;;;;;;;;;;;10.50;82.70;;;;;;2098082;28;1041;-52
2021/01/01 05:01:59;;;;;;;;;;;10.50;82.80;;;;;;2087283;28;1981;-53
2021/01/01 05:03:18;;;;;;;;;;;10.50;82.10;;;;;;2094741;28;756;-56
2021/01/01 05:04:38;;;;;;;;;;;10.50;82.00;;;;;;2098047;28;734;-52
2021/01/01 05:05:57;;;;;;;;;;;10.50;82.00;;;;;;2097860;28;739;-54
2021/01/01 05:07:19;;;;;;;;;;;10.50;82.10;;;;;;2089078;28;740;-53
2021/01/01 05:08:38;;;;;;;;;;;10.50;82.10;;;;;;2102762;28;721;-53
2021/01/01 05:09:57;;;;;;;;;;;10.50;82.20;;;;;;2100842;28;771;-54
2021/01/01 05:11:17;;;;;;;;;;;10.50;82.00;;;;;;2088943;28;721;-52
2021/01/01 05:12:36;;;;;;;;;;;10.60;82.00;;;;;;2098562;28;935;-52
2021/01/01 05:13:56;;;;;;;;;;;10.60;81.90;;;;;;2097666;28;1280;-54
2021/01/01 05:15:35;;;;;;;;;;;10.60;82.50;;;;;;2095959;28;1461;-53
2021/01/01 05:16:54;;;;;;;;;;;10.70;82.20;;;;;;2088921;28;729;-55
2021/01/01 05:18:20;;;;;;;;;;;10.70;80.80;;;;;;2094895;28;754;-50
2021/01/01 05:19:40;;;;;;;;;;;10.80;80.20;;;;;;2099715;28;717;-54
2021/01/01 05:20:59;;;;;;;;;;;10.90;80.50;;;;;;2090917;28;725;-53
2021/01/01 05:22:19;;;;;;;;;;;10.90;79.40;;;;;;2096115;28;1942;-52
2021/01/01 05:23:38;;;;;;;;;;;11.00;78.70;;;;;;2090917;28;736;-51
2021/01/01 05:24:59;;;;;;;;;;;11.00;78.20;;;;;;2094926;28;1332;-52
2021/01/01 05:26:19;;;;;;;;;;;11.10;77.70;;;;;;2090533;28;745;-50
2021/01/01 05:27:38;;;;;;;;;;;11.20;77.20;;;;;;2095548;28;709;-55
2021/01/01 05:29:03;;;;;;;;;;;11.20;76.60;;;;;;2090550;28;747;-50
2021/01/01 05:30:29;;;;;;;;;;;11.30;76.30;;;;;;2096650;28;707;-54
2021/01/01 05:31:48;;;;;;;;;;;11.30;75.60;;;;;;2099510;28;720;-52
2021/01/01 05:33:13;;;;;;;;;;;11.40;75.20;;;;;;2090639;28;739;-50
2021/01/01 05:34:40;;;;;;;;;;;11.40;74.60;;;;;;2105021;28;739;-53
2021/01/01 05:36:05;;;;;;;;;;;11.50;74.10;;;;;;2101685;28;738;-52
2021/01/01 05:37:24;;;;;;;;;;;11.60;73.50;;;;;;2099409;28;740;-54
2021/01/01 05:38:44;;;;;;;;;;;11.70;73.00;;;;;;2099550;28;714;-53
2021/01/01 05:40:06;;;;;;;;;;;11.70;72.50;;;;;;2090708;28;752;-52
2021/01/01 05:41:32;;;;;;;;;;;11.80;72.10;;;;;;2096271;28;714;-52
2021/01/01 05:42:51;;;;;;;;;;;11.80;71.70;;;;;;2078642;28;1973;-51
2021/01/01 05:44:16;;;;;;;;;;;11.90;71.10;;;;;;2094276;28;1039;-54
2021/01/01 05:45:35;;;;;;;;;;;12.00;70.80;;;;;;2084101;28;1403;-54
2021/01/01 05:46:55;;;;;;;;;;;12.00;70.20;;;;;;2087491;28;705;-50
2021/01/01 05:48:16;;;;;;;;;;;12.10;69.90;;;;;;2082265;28;739;-51
2021/01/01 05:49:36;;;;;;;;;;;12.20;69.60;;;;;;2087848;28;721;-54
2021/01/01 05:51:03;;;;;;;;;;;12.20;69.90;;;;;;2072170;28;784;-55
2021/01/01 05:52:24;;;;;;;;;;;12.30;69.50;;;;;;2089898;28;811;-56
2021/01/01 05:53:44;;;;;;;;;;;12.30;68.20;;;;;;2087449;28;744;-56
2021/01/01 05:55:03;;;;;;;;;;;12.40;68.00;;;;;;2086624;28;1439;-56
2021/01/01 05:56:22;;;;;;;;;;;12.50;68.30;;;;;;2076541;28;758;-53
2021/01/01 05:57:42;;;;;;;;;;;12.50;67.20;;;;;;2065210;28;786;-53
2021/01/01 05:59:01;;;;;;;;;;;12.60;67.60;;;;;;2078818;28;713;-54
2021/01/01 06:00:20;;;;;;;;;;;12.70;66.90;;;;;;2068401;28;819;-54
2021/01/01 06:01:39;;;;;;;;;;;12.70;66.30;;;;;;2072268;28;768;-51
2021/01/01 06:02:58;;;;;;;;;;;12.80;65.90;;;;;;2067509;28;779;-55
2021/01/01 06:04:18;;;;;;;;;;;12.80;66.10;;;;;;2074104;28;753;-53
2021/01/01 06:05:37;;;;;;;;;;;12.90;65.00;;;;;;2065846;28;1471;-51
2021/01/01 06:06:57;;;;;;;;;;;12.90;64.80;;;;;;2074812;28;743;-53
2021/01/01 06:08:16;;;;;;;;;;;12.90;64.60;;;;;;2091163;28;762;-52
2021/01/01 06:09:36;;;;;;;;;;;13.00;64.50;;;;;;2080447;28;1010;-55
2021/01/01 06:11:02;;;;;;;;;;;13.00;64.50;;;;;;2090008;28;965;-54
2021/01/01 06:12:25;;;;;;;;;;;13.00;64.60;;;;;;2092605;28;948;-53
2021/01/01 06:13:44;;;;;;;;;;;13.00;64.70;;;;;;2095314;28;1120;-53
2021/01/01 06:15:04;;;;;;;;;;;13.00;65.00;;;;;;2086823;28;1429;-55
2021/01/01 06:16:23;;;;;;;;;;;13.00;65.10;;;;;;2087035;28;752;-53
2021/01/01 06:17:49;;;;;;;;;;;13.00;65.20;;;;;;2081613;28;721;-53
2021/01/01 06:19:09;;;;;;;;;;;13.00;65.20;;;;;;2095719;28;735;-53
2021/01/01 06:20:29;;;;;;;;;;;13.00;65.20;;;;;;2076693;28;1499;-52
2021/01/01 06:21:48;;;;;;;;;;;13.10;65.30;;;;;;2092305;28;1319;-53
2021/01/01 06:23:07;;;;;;;;;;;13.10;65.10;;;;;;2076757;28;780;-52
2021/01/01 06:24:26;;;;;;;;;;;13.10;64.70;;;;;;2091621;28;736;-54
2021/01/01 06:25:45;;;;;;;;;;;13.20;64.70;;;;;;2084766;28;1503;-53
2021/01/01 06:27:05;;;;;;;;;;;13.20;64.60;;;;;;2094579;28;825;-52
2021/01/01 06:28:24;;;;;;;;;;;13.30;64.50;;;;;;2093006;28;722;-53
2021/01/01 06:29:45;;;;;;;;;;;13.40;65.00;;;;;;2081467;28;745;-53
2021/01/01 06:31:04;;;;;;;;;;;13.40;64.00;;;;;;2086850;28;783;-54
2021/01/01 06:32:23;;;;;;;;;;;13.50;63.90;;;;;;2090285;28;775;-54
2021/01/01 06:33:43;;;;;;;;;;;13.50;63.60;;;;;;2090482;28;769;-52
2021/01/01 06:35:11;;;;;;;;;;;13.50;63.20;;;;;;2080562;28;1487;-52
2021/01/01 06:36:36;;;;;;;;;;;13.60;63.10;;;;;;2096115;28;867;-54
2021/01/01 06:37:56;;;;;;;;;;;13.70;62.90;;;;;;2092514;28;743;-53
2021/01/01 06:39:34;;;;;;;;;;;13.80;62.70;;;;;;2090253;28;745;-53
2021/01/01 06:40:54;;;;;;;;;;;13.80;62.20;;;;;;2081467;28;727;-52
2021/01/01 06:42:13;;;;;;;;;;;13.90;62.80;;;;;;2086763;28;1898;-55
2021/01/01 06:43:48;;;;;;;;;;;13.90;62.50;;;;;;2097372;28;904;-54
2021/01/01 06:45:27;;;;;;;;;;;14.00;61.60;;;;;;2095207;28;1415;-53
2021/01/01 06:46:47;;;;;;;;;;;14.00;61.20;;;;;;2098464;28;754;-52
2021/01/01 06:48:07;;;;;;;;;;;14.10;61.10;;;;;;2098371;28;756;-54
2021/01/01 06:49:30;;;;;;;;;;;14.10;61.10;;;;;;2098228;28;765;-54
2021/01/01 06:50:50;;;;;;;;;;;14.10;61.00;;;;;;2089515;28;750;-52
2021/01/01 06:52:16;;;;;;;;;;;14.10;61.00;;;;;;2102924;28;748;-53
2021/01/01 06:53:35;;;;;;;;;;;14.10;61.00;;;;;;2100587;28;778;-53
2021/01/01 06:54:55;;;;;;;;;;;14.20;61.10;;;;;;2088859;28;1421;-54
2021/01/01 06:56:14;;;;;;;;;;;14.20;61.00;;;;;;2102809;28;758;-53
2021/01/01 06:57:33;;;;;;;;;;;14.20;60.90;;;;;;2092729;28;739;-54
2021/01/01 06:59:06;;;;;;;;;;;14.30;60.90;;;;;;2102802;28;745;-51
2021/01/01 07:00:43;;;;;;;;;;;14.30;60.80;;;;;;2090762;28;757;-52
2021/01/01 07:02:16;;;;;;;;;;;14.30;60.90;;;;;;2087074;28;1964;-51
2021/01/01 07:03:36;;;;;;;;;;;14.30;60.80;;;;;;2088074;28;732;-52
2021/01/01 07:04:55;;;;;;;;;;;14.30;61.00;;;;;;2102235;28;1364;-50
2021/01/01 07:06:14;;;;;;;;;;;14.30;61.00;;;;;;2092465;28;787;-56
2021/01/01 07:07:37;;;;;;;;;;;14.30;61.10;;;;;;2086229;28;856;-51
2021/01/01 07:08:56;;;;;;;;;;;14.30;61.30;;;;;;2090102;28;987;-53
2021/01/01 07:10:33;;;;;;;;;;;14.30;61.50;;;;;;2069591;28;581281;-50
2021/01/01 07:11:52;;;;;;;;;;;14.20;61.60;;;;;;2081493;28;816;-55
2021/01/01 07:13:18;;;;;;;;;;;14.20;61.80;;;;;;2091532;28;1161;-53
2021/01/01 07:14:37;;;;;;;;;;;14.20;62.60;;;;;;2075747;28;925;-52
2021/01/01 07:15:56;;;;;;;;;;;14.30;62.10;;;;;;2094458;28;701;-53
2021/01/01 07:17:16;;;;;;;;;;;14.20;62.10;;;;;;2080944;28;735;-53
2021/01/01 07:18:35;;;;;;;;;;;14.20;62.10;;;;;;2091423;28;753;-54
2021/01/01 07:19:54;;;;;;;;;;;14.30;62.30;;;;;;2089275;28;733;-51
2021/01/01 07:21:18;;;;;;;;;;;14.30;62.40;;;;;;2091171;28;1378;-51
2021/01/01 07:22:37;;;;;;;;;;;14.30;62.50;;;;;;2080792;28;1973;-53
2021/01/01 07:23:56;;;;;;;;;;;14.20;62.60;;;;;;2078216;28;717;-54
2021/01/01 07:25:15;;;;;;;;;;;14.20;62.70;;;;;;2085579;28;1378;-53
2021/01/01 07:26:34;;;;;;;;;;;14.20;62.90;;;;;;2072645;28;725;-52
2021/01/01 07:27:54;;;;;;;;;;;14.20;63.10;;;;;;2074258;28;890;-53
2021/01/01 07:29:13;;;;;;;;;;;14.20;63.30;;;;;;2077520;28;736;-52
2021/01/01 07:30:33;;;;;;;;;;;14.10;63.40;;;;;;2077688;28;724;-52
2021/01/01 07:31:53;;;;;;;;;;;14.10;63.60;;;;;;2086222;28;727;-52
2021/01/01 07:33:12;;;;;;;;;;;14.10;63.80;;;;;;2080774;28;730;-53
2021/01/01 07:34:31;;;;;;;;;;;14.10;63.80;;;;;;2080420;28;740;-54
2021/01/01 07:35:51;;;;;;;;;;;14.20;64.00;;;;;;2086380;28;755;-52
2021/01/01 07:37:10;;;;;;;;;;;14.20;64.80;;;;;;2080502;28;731;-52
2021/01/01 07:38:30;;;;;;;;;;;14.20;64.70;;;;;;2086514;28;689;-52
2021/01/01 07:39:52;;;;;;;;;;;14.20;64.00;;;;;;2089683;28;719;-51
2021/01/01 07:41:11;;;;;;;;;;;14.20;64.00;;;;;;2071706;28;748;-51
2021/01/01 07:42:30;;;;;;;;;;;14.20;64.00;;;;;;2083209;28;1972;-53
2021/01/01 07:43:50;;;;;;;;;;;14.20;64.10;;;;;;2085480;28;1011;-52
2021/01/01 07:45:11;;;;;;;;;;;14.20;64.20;;;;;;2091373;28;1493;-51
2021/01/01 07:46:31;;;;;;;;;;;14.20;64.40;;;;;;2097890;28;804;-52
2021/01/01 07:47:49;;;;;;;;;;;14.20;65.20;;;;;;2088544;28;740;-52
2021/01/01 07:49:09;;;;;;;;;;;14.20;65.20;;;;;;2102173;28;720;-54
2021/01/01 07:50:29;;;;;;;;;;;14.20;65.20;;;;;;2100937;28;728;-53
2021/01/01 07:51:48;;;;;;;;;;;14.20;64.50;;;;;;2097630;28;767;-52
2021/01/01 07:53:08;;;;;;;;;;;14.20;64.40;;;;;;2088951;28;715;-52
2021/01/01 07:54:27;;;;;;;;;;;14.30;64.50;;;;;;2094396;28;722;-53
2021/01/01 07:55:46;;;;;;;;;;;14.30;64.50;;;;;;2097798;28;1487;-52
2021/01/01 07:57:06;;;;;;;;;;;14.30;64.50;;;;;;2089054;28;708;-52
2021/01/01 07:58:26;;;;;;;;;;;14.30;64.60;;;;;;2094007;28;793;-53
2021/01/01 07:59:45;;;;;;;;;;;14.20;64.60;;;;;;2088753;28;741;-51